sensor_id;sensor_type;location;lat;lon;timestamp;P1;durP1;ratioP1;P2;durP2;ratioP2
60336;SDS011;46978;50.288;28.624;2023-05-07T00:02:17;5.74;;;2.65;;
60336;SDS011;46978;50.288;28.624;2023-05-07T00:03:19;6.99;;;3.17;;
60336;SDS011;46978;50.288;28.624;2023-05-07T00:04:21;5.92;;;3.29;;
60336;SDS011;46978;50.288;28.624;2023-05-07T00:05:22;6.83;;;3.04;;
60336;SDS011;46978;50.288;28.624;2023-05-07T00:06:24;7.20;;;3.21;;
60336;SDS011;46978;50.288;28.624;2023-05-07T00:07:26;5.30;;;2.62;;
60336;SDS011;46978;50.288;28.624;2023-05-07T00:08:27;6.22;;;2.91;;
60336;SDS011;46978;50.288;28.624;2023-05-07T00:09:29;5.63;;;2.78;;
60336;SDS011;46978;50.288;28.624;2023-05-07T00:10:31;8.36;;;2.88;;
60336;SDS011;46978;50.288;28.624;2023-05-07T00:11:32;7.89;;;3.14;;
60336;SDS011;46978;50.288;28.624;2023-05-07T00:12:34;6.39;;;3.28;;
60336;SDS011;46978;50.288;28.624;2023-05-07T00:13:36;7.10;;;2.99;;
60336;SDS011;46978;50.288;28.624;2023-05-07T00:14:38;5.10;;;3.16;;
60336;SDS011;46978;50.288;28.624;2023-05-07T00:15:39;6.24;;;2.56;;
60336;SDS011;46978;50.288;28.624;2023-05-07T00:16:42;5.50;;;2.49;;
60336;SDS011;46978;50.288;28.624;2023-05-07T00:17:43;5.14;;;2.16;;
60336;SDS011;46978;50.288;28.624;2023-05-07T00:18:45;5.81;;;2.71;;
60336;SDS011;46978;50.288;28.624;2023-05-07T00:19:47;6.66;;;3.02;;
60336;SDS011;46978;50.288;28.624;2023-05-07T00:20:48;5.31;;;2.55;;
60336;SDS011;46978;50.288;28.624;2023-05-07T00:21:50;5.34;;;2.43;;
60336;SDS011;46978;50.288;28.624;2023-05-07T00:22:52;4.42;;;2.66;;
60336;SDS011;46978;50.288;28.624;2023-05-07T00:23:53;4.67;;;2.18;;
60336;SDS011;46978;50.288;28.624;2023-05-07T00:24:55;5.38;;;2.80;;
60336;SDS011;46978;50.288;28.624;2023-05-07T00:25:57;4.93;;;2.50;;
60336;SDS011;46978;50.288;28.624;2023-05-07T00:26:59;7.12;;;2.60;;
60336;SDS011;46978;50.288;28.624;2023-05-07T00:28:01;4.58;;;2.63;;
60336;SDS011;46978;50.288;28.624;2023-05-07T00:29:02;4.86;;;2.69;;
60336;SDS011;46978;50.288;28.624;2023-05-07T00:30:05;4.35;;;2.56;;
60336;SDS011;46978;50.288;28.624;2023-05-07T00:31:07;5.95;;;2.29;;
60336;SDS011;46978;50.288;28.624;2023-05-07T00:32:09;5.93;;;2.47;;
60336;SDS011;46978;50.288;28.624;2023-05-07T00:33:10;3.95;;;2.24;;
60336;SDS011;46978;50.288;28.624;2023-05-07T00:34:12;4.59;;;2.21;;
60336;SDS011;46978;50.288;28.624;2023-05-07T00:35:13;7.32;;;2.64;;
60336;SDS011;46978;50.288;28.624;2023-05-07T00:36:16;5.11;;;2.47;;
60336;SDS011;46978;50.288;28.624;2023-05-07T00:37:18;4.33;;;2.35;;
60336;SDS011;46978;50.288;28.624;2023-05-07T00:38:19;5.17;;;2.43;;
60336;SDS011;46978;50.288;28.624;2023-05-07T00:39:21;5.84;;;2.68;;
60336;SDS011;46978;50.288;28.624;2023-05-07T00:40:23;7.39;;;2.60;;
60336;SDS011;46978;50.288;28.624;2023-05-07T00:41:25;5.45;;;2.29;;
60336;SDS011;46978;50.288;28.624;2023-05-07T00:42:27;5.95;;;2.48;;
60336;SDS011;46978;50.288;28.624;2023-05-07T00:43:28;3.73;;;2.35;;
60336;SDS011;46978;50.288;28.624;2023-05-07T00:44:30;4.85;;;2.49;;
60336;SDS011;46978;50.288;28.624;2023-05-07T00:45:32;5.40;;;2.39;;
60336;SDS011;46978;50.288;28.624;2023-05-07T00:46:34;5.11;;;2.41;;
60336;SDS011;46978;50.288;28.624;2023-05-07T00:47:36;5.39;;;2.91;;
60336;SDS011;46978;50.288;28.624;2023-05-07T00:48:38;5.07;;;2.62;;
60336;SDS011;46978;50.288;28.624;2023-05-07T00:49:41;5.52;;;2.62;;
60336;SDS011;46978;50.288;28.624;2023-05-07T00:50:44;4.60;;;2.68;;
60336;SDS011;46978;50.288;28.624;2023-05-07T00:51:46;5.59;;;2.65;;
60336;SDS011;46978;50.288;28.624;2023-05-07T00:52:48;5.36;;;2.62;;
60336;SDS011;46978;50.288;28.624;2023-05-07T00:53:50;5.87;;;2.92;;
60336;SDS011;46978;50.288;28.624;2023-05-07T00:54:52;4.66;;;2.53;;
60336;SDS011;46978;50.288;28.624;2023-05-07T00:55:55;4.96;;;2.74;;
60336;SDS011;46978;50.288;28.624;2023-05-07T00:56:56;6.88;;;2.67;;
60336;SDS011;46978;50.288;28.624;2023-05-07T00:57:58;5.27;;;2.59;;
60336;SDS011;46978;50.288;28.624;2023-05-07T00:59:05;5.29;;;2.70;;
60336;SDS011;46978;50.288;28.624;2023-05-07T01:00:05;5.03;;;2.71;;
60336;SDS011;46978;50.288;28.624;2023-05-07T01:01:08;4.91;;;2.44;;
60336;SDS011;46978;50.288;28.624;2023-05-07T01:02:09;4.55;;;2.53;;
60336;SDS011;46978;50.288;28.624;2023-05-07T01:03:11;4.75;;;2.22;;
60336;SDS011;46978;50.288;28.624;2023-05-07T01:04:13;5.67;;;2.73;;
60336;SDS011;46978;50.288;28.624;2023-05-07T01:05:15;7.69;;;2.70;;
60336;SDS011;46978;50.288;28.624;2023-05-07T01:06:20;11.62;;;2.98;;
60336;SDS011;46978;50.288;28.624;2023-05-07T01:07:24;6.53;;;2.78;;
60336;SDS011;46978;50.288;28.624;2023-05-07T01:08:27;7.31;;;2.57;;
60336;SDS011;46978;50.288;28.624;2023-05-07T01:09:30;5.11;;;2.37;;
60336;SDS011;46978;50.288;28.624;2023-05-07T01:10:32;4.28;;;2.41;;
60336;SDS011;46978;50.288;28.624;2023-05-07T01:11:34;6.31;;;2.78;;
60336;SDS011;46978;50.288;28.624;2023-05-07T01:12:37;4.97;;;2.44;;
60336;SDS011;46978;50.288;28.624;2023-05-07T01:13:40;6.03;;;2.49;;
60336;SDS011;46978;50.288;28.624;2023-05-07T01:14:42;5.33;;;2.40;;
60336;SDS011;46978;50.288;28.624;2023-05-07T01:15:44;5.66;;;2.56;;
60336;SDS011;46978;50.288;28.624;2023-05-07T01:16:46;5.01;;;2.41;;
60336;SDS011;46978;50.288;28.624;2023-05-07T01:17:49;5.67;;;2.66;;
60336;SDS011;46978;50.288;28.624;2023-05-07T01:18:51;7.13;;;2.61;;
60336;SDS011;46978;50.288;28.624;2023-05-07T01:19:53;5.85;;;2.60;;
60336;SDS011;46978;50.288;28.624;2023-05-07T01:20:54;7.63;;;2.69;;
60336;SDS011;46978;50.288;28.624;2023-05-07T01:22:01;5.57;;;2.72;;
60336;SDS011;46978;50.288;28.624;2023-05-07T01:23:03;5.46;;;2.40;;
60336;SDS011;46978;50.288;28.624;2023-05-07T01:24:06;7.14;;;2.62;;
60336;SDS011;46978;50.288;28.624;2023-05-07T01:25:08;4.93;;;2.63;;
60336;SDS011;46978;50.288;28.624;2023-05-07T01:26:10;5.18;;;2.47;;
60336;SDS011;46978;50.288;28.624;2023-05-07T01:27:12;4.81;;;2.15;;
60336;SDS011;46978;50.288;28.624;2023-05-07T01:28:13;5.78;;;2.34;;
60336;SDS011;46978;50.288;28.624;2023-05-07T01:29:15;5.31;;;2.81;;
60336;SDS011;46978;50.288;28.624;2023-05-07T01:30:17;4.85;;;2.34;;
60336;SDS011;46978;50.288;28.624;2023-05-07T01:31:21;6.55;;;2.64;;
60336;SDS011;46978;50.288;28.624;2023-05-07T01:32:27;4.26;;;2.54;;
60336;SDS011;46978;50.288;28.624;2023-05-07T01:33:31;5.98;;;2.64;;
60336;SDS011;46978;50.288;28.624;2023-05-07T01:34:35;6.33;;;2.90;;
60336;SDS011;46978;50.288;28.624;2023-05-07T01:35:39;4.93;;;2.49;;
60336;SDS011;46978;50.288;28.624;2023-05-07T01:36:43;6.08;;;2.82;;
60336;SDS011;46978;50.288;28.624;2023-05-07T01:37:46;5.57;;;2.79;;
60336;SDS011;46978;50.288;28.624;2023-05-07T01:38:49;6.98;;;2.72;;
60336;SDS011;46978;50.288;28.624;2023-05-07T01:39:51;4.50;;;2.53;;
60336;SDS011;46978;50.288;28.624;2023-05-07T01:40:54;4.67;;;2.47;;
60336;SDS011;46978;50.288;28.624;2023-05-07T01:41:57;5.60;;;2.57;;
60336;SDS011;46978;50.288;28.624;2023-05-07T01:43:01;6.19;;;2.49;;
60336;SDS011;46978;50.288;28.624;2023-05-07T01:44:04;5.58;;;2.94;;
60336;SDS011;46978;50.288;28.624;2023-05-07T01:45:07;6.10;;;2.47;;
60336;SDS011;46978;50.288;28.624;2023-05-07T01:46:09;5.83;;;2.68;;
60336;SDS011;46978;50.288;28.624;2023-05-07T01:47:13;6.64;;;2.54;;
60336;SDS011;46978;50.288;28.624;2023-05-07T01:48:15;6.28;;;2.95;;
60336;SDS011;46978;50.288;28.624;2023-05-07T01:49:18;5.09;;;2.70;;
60336;SDS011;46978;50.288;28.624;2023-05-07T01:50:20;5.29;;;2.52;;
60336;SDS011;46978;50.288;28.624;2023-05-07T01:51:22;3.75;;;2.41;;
60336;SDS011;46978;50.288;28.624;2023-05-07T01:52:24;4.23;;;2.27;;
60336;SDS011;46978;50.288;28.624;2023-05-07T01:53:27;5.05;;;2.39;;
60336;SDS011;46978;50.288;28.624;2023-05-07T01:54:29;6.99;;;2.56;;
60336;SDS011;46978;50.288;28.624;2023-05-07T01:55:30;4.49;;;2.20;;
60336;SDS011;46978;50.288;28.624;2023-05-07T01:56:32;4.97;;;2.04;;
60336;SDS011;46978;50.288;28.624;2023-05-07T01:57:34;3.94;;;2.18;;
60336;SDS011;46978;50.288;28.624;2023-05-07T01:58:35;4.73;;;2.17;;
60336;SDS011;46978;50.288;28.624;2023-05-07T01:59:37;3.07;;;1.84;;
60336;SDS011;46978;50.288;28.624;2023-05-07T02:00:39;3.52;;;2.01;;
60336;SDS011;46978;50.288;28.624;2023-05-07T02:01:41;5.75;;;2.10;;
60336;SDS011;46978;50.288;28.624;2023-05-07T02:02:43;4.26;;;2.11;;
60336;SDS011;46978;50.288;28.624;2023-05-07T02:03:44;4.38;;;2.26;;
60336;SDS011;46978;50.288;28.624;2023-05-07T02:04:46;4.26;;;2.12;;
60336;SDS011;46978;50.288;28.624;2023-05-07T02:05:47;5.09;;;2.52;;
60336;SDS011;46978;50.288;28.624;2023-05-07T02:06:49;4.66;;;2.14;;
60336;SDS011;46978;50.288;28.624;2023-05-07T02:07:51;2.56;;;1.59;;
60336;SDS011;46978;50.288;28.624;2023-05-07T02:08:52;4.36;;;2.14;;
60336;SDS011;46978;50.288;28.624;2023-05-07T02:09:54;3.73;;;1.84;;
60336;SDS011;46978;50.288;28.624;2023-05-07T02:10:55;3.61;;;1.68;;
60336;SDS011;46978;50.288;28.624;2023-05-07T02:11:57;5.31;;;1.97;;
60336;SDS011;46978;50.288;28.624;2023-05-07T02:12:59;4.99;;;2.01;;
60336;SDS011;46978;50.288;28.624;2023-05-07T02:14:00;4.29;;;2.14;;
60336;SDS011;46978;50.288;28.624;2023-05-07T02:15:02;4.38;;;2.16;;
60336;SDS011;46978;50.288;28.624;2023-05-07T02:16:05;4.71;;;2.17;;
60336;SDS011;46978;50.288;28.624;2023-05-07T02:17:07;5.13;;;2.21;;
60336;SDS011;46978;50.288;28.624;2023-05-07T02:18:09;3.51;;;2.07;;
60336;SDS011;46978;50.288;28.624;2023-05-07T02:19:11;4.89;;;2.44;;
60336;SDS011;46978;50.288;28.624;2023-05-07T02:20:13;4.39;;;1.98;;
60336;SDS011;46978;50.288;28.624;2023-05-07T02:21:14;3.07;;;1.87;;
60336;SDS011;46978;50.288;28.624;2023-05-07T02:22:16;3.56;;;1.75;;
60336;SDS011;46978;50.288;28.624;2023-05-07T02:23:19;4.27;;;2.33;;
60336;SDS011;46978;50.288;28.624;2023-05-07T02:24:20;4.19;;;2.01;;
60336;SDS011;46978;50.288;28.624;2023-05-07T02:25:22;6.42;;;2.56;;
60336;SDS011;46978;50.288;28.624;2023-05-07T02:26:24;5.92;;;2.45;;
60336;SDS011;46978;50.288;28.624;2023-05-07T02:27:25;4.34;;;2.01;;
60336;SDS011;46978;50.288;28.624;2023-05-07T02:28:27;4.69;;;2.31;;
60336;SDS011;46978;50.288;28.624;2023-05-07T02:29:29;4.19;;;2.08;;
60336;SDS011;46978;50.288;28.624;2023-05-07T02:30:31;4.91;;;2.41;;
60336;SDS011;46978;50.288;28.624;2023-05-07T02:31:33;4.45;;;2.08;;
60336;SDS011;46978;50.288;28.624;2023-05-07T02:32:34;3.89;;;2.01;;
60336;SDS011;46978;50.288;28.624;2023-05-07T02:33:36;4.57;;;3.23;;
60336;SDS011;46978;50.288;28.624;2023-05-07T02:34:38;4.15;;;2.48;;
60336;SDS011;46978;50.288;28.624;2023-05-07T02:35:40;3.96;;;2.06;;
60336;SDS011;46978;50.288;28.624;2023-05-07T02:36:41;3.43;;;1.93;;
60336;SDS011;46978;50.288;28.624;2023-05-07T02:37:43;5.12;;;2.21;;
60336;SDS011;46978;50.288;28.624;2023-05-07T02:38:45;7.16;;;2.24;;
60336;SDS011;46978;50.288;28.624;2023-05-07T02:39:47;4.20;;;2.20;;
60336;SDS011;46978;50.288;28.624;2023-05-07T02:40:48;3.47;;;1.91;;
60336;SDS011;46978;50.288;28.624;2023-05-07T02:41:50;5.94;;;2.38;;
60336;SDS011;46978;50.288;28.624;2023-05-07T02:42:52;4.06;;;1.93;;
60336;SDS011;46978;50.288;28.624;2023-05-07T02:43:53;5.53;;;2.44;;
60336;SDS011;46978;50.288;28.624;2023-05-07T02:44:55;4.90;;;2.42;;
60336;SDS011;46978;50.288;28.624;2023-05-07T02:46:05;4.64;;;2.30;;
60336;SDS011;46978;50.288;28.624;2023-05-07T02:47:05;4.97;;;2.08;;
60336;SDS011;46978;50.288;28.624;2023-05-07T02:48:06;4.21;;;2.14;;
60336;SDS011;46978;50.288;28.624;2023-05-07T02:49:08;5.25;;;2.39;;
60336;SDS011;46978;50.288;28.624;2023-05-07T02:50:10;5.11;;;2.37;;
60336;SDS011;46978;50.288;28.624;2023-05-07T02:51:12;4.35;;;2.31;;
60336;SDS011;46978;50.288;28.624;2023-05-07T02:52:13;4.90;;;2.22;;
60336;SDS011;46978;50.288;28.624;2023-05-07T02:53:15;5.53;;;2.38;;
60336;SDS011;46978;50.288;28.624;2023-05-07T02:54:17;5.53;;;2.38;;
60336;SDS011;46978;50.288;28.624;2023-05-07T02:55:18;5.24;;;2.60;;
60336;SDS011;46978;50.288;28.624;2023-05-07T02:56:20;7.35;;;3.15;;
60336;SDS011;46978;50.288;28.624;2023-05-07T02:57:22;4.59;;;2.34;;
60336;SDS011;46978;50.288;28.624;2023-05-07T02:58:24;9.13;;;2.64;;
60336;SDS011;46978;50.288;28.624;2023-05-07T02:59:26;4.54;;;2.21;;
60336;SDS011;46978;50.288;28.624;2023-05-07T03:00:28;5.58;;;2.40;;
60336;SDS011;46978;50.288;28.624;2023-05-07T03:01:29;7.20;;;3.06;;
60336;SDS011;46978;50.288;28.624;2023-05-07T03:02:31;6.31;;;2.55;;
60336;SDS011;46978;50.288;28.624;2023-05-07T03:03:32;6.42;;;2.78;;
60336;SDS011;46978;50.288;28.624;2023-05-07T03:04:35;3.99;;;2.19;;
60336;SDS011;46978;50.288;28.624;2023-05-07T03:05:36;5.46;;;2.52;;
60336;SDS011;46978;50.288;28.624;2023-05-07T03:06:38;5.68;;;2.58;;
60336;SDS011;46978;50.288;28.624;2023-05-07T03:07:40;3.90;;;2.38;;
60336;SDS011;46978;50.288;28.624;2023-05-07T03:08:42;5.55;;;2.82;;
60336;SDS011;46978;50.288;28.624;2023-05-07T03:09:44;4.92;;;2.47;;
60336;SDS011;46978;50.288;28.624;2023-05-07T03:10:46;4.37;;;2.55;;
60336;SDS011;46978;50.288;28.624;2023-05-07T03:11:48;10.52;;;2.93;;
60336;SDS011;46978;50.288;28.624;2023-05-07T03:12:50;4.45;;;2.19;;
60336;SDS011;46978;50.288;28.624;2023-05-07T03:13:51;4.29;;;2.19;;
60336;SDS011;46978;50.288;28.624;2023-05-07T03:14:53;4.52;;;2.27;;
60336;SDS011;46978;50.288;28.624;2023-05-07T03:15:54;4.96;;;2.38;;
60336;SDS011;46978;50.288;28.624;2023-05-07T03:16:56;3.62;;;1.86;;
60336;SDS011;46978;50.288;28.624;2023-05-07T03:17:58;5.11;;;2.19;;
60336;SDS011;46978;50.288;28.624;2023-05-07T03:18:59;5.88;;;2.34;;
60336;SDS011;46978;50.288;28.624;2023-05-07T03:20:01;3.79;;;2.06;;
60336;SDS011;46978;50.288;28.624;2023-05-07T03:21:03;4.22;;;1.99;;
60336;SDS011;46978;50.288;28.624;2023-05-07T03:22:05;6.09;;;2.76;;
60336;SDS011;46978;50.288;28.624;2023-05-07T03:23:06;3.24;;;2.05;;
60336;SDS011;46978;50.288;28.624;2023-05-07T03:24:08;4.18;;;2.38;;
60336;SDS011;46978;50.288;28.624;2023-05-07T03:25:09;4.70;;;2.24;;
60336;SDS011;46978;50.288;28.624;2023-05-07T03:26:12;6.52;;;2.23;;
60336;SDS011;46978;50.288;28.624;2023-05-07T03:27:13;4.29;;;2.25;;
60336;SDS011;46978;50.288;28.624;2023-05-07T03:28:15;4.50;;;2.14;;
60336;SDS011;46978;50.288;28.624;2023-05-07T03:29:17;4.56;;;2.16;;
60336;SDS011;46978;50.288;28.624;2023-05-07T03:30:18;3.77;;;1.97;;
60336;SDS011;46978;50.288;28.624;2023-05-07T03:31:20;4.69;;;2.40;;
60336;SDS011;46978;50.288;28.624;2023-05-07T03:32:22;6.68;;;2.38;;
60336;SDS011;46978;50.288;28.624;2023-05-07T03:33:24;4.53;;;2.51;;
60336;SDS011;46978;50.288;28.624;2023-05-07T03:34:25;3.61;;;2.11;;
60336;SDS011;46978;50.288;28.624;2023-05-07T03:35:27;4.26;;;2.30;;
60336;SDS011;46978;50.288;28.624;2023-05-07T03:36:28;4.26;;;2.44;;
60336;SDS011;46978;50.288;28.624;2023-05-07T03:37:30;4.11;;;2.61;;
60336;SDS011;46978;50.288;28.624;2023-05-07T03:38:32;4.24;;;2.52;;
60336;SDS011;46978;50.288;28.624;2023-05-07T03:39:33;5.03;;;2.39;;
60336;SDS011;46978;50.288;28.624;2023-05-07T03:40:35;5.18;;;2.45;;
60336;SDS011;46978;50.288;28.624;2023-05-07T03:41:37;4.00;;;2.24;;
60336;SDS011;46978;50.288;28.624;2023-05-07T03:42:39;3.95;;;2.32;;
60336;SDS011;46978;50.288;28.624;2023-05-07T03:43:41;4.89;;;2.13;;
60336;SDS011;46978;50.288;28.624;2023-05-07T03:44:42;4.05;;;2.39;;
60336;SDS011;46978;50.288;28.624;2023-05-07T03:45:44;6.14;;;2.26;;
60336;SDS011;46978;50.288;28.624;2023-05-07T03:46:48;4.09;;;2.20;;
60336;SDS011;46978;50.288;28.624;2023-05-07T03:47:50;3.74;;;2.14;;
60336;SDS011;46978;50.288;28.624;2023-05-07T03:48:52;5.99;;;2.41;;
60336;SDS011;46978;50.288;28.624;2023-05-07T03:49:53;4.09;;;2.26;;
60336;SDS011;46978;50.288;28.624;2023-05-07T03:50:55;4.01;;;2.31;;
60336;SDS011;46978;50.288;28.624;2023-05-07T03:51:58;4.14;;;2.12;;
60336;SDS011;46978;50.288;28.624;2023-05-07T03:53:00;4.04;;;2.13;;
60336;SDS011;46978;50.288;28.624;2023-05-07T03:54:02;5.37;;;2.62;;
60336;SDS011;46978;50.288;28.624;2023-05-07T03:55:04;6.63;;;2.81;;
60336;SDS011;46978;50.288;28.624;2023-05-07T03:56:06;5.89;;;3.05;;
60336;SDS011;46978;50.288;28.624;2023-05-07T03:57:08;6.61;;;3.46;;
60336;SDS011;46978;50.288;28.624;2023-05-07T03:58:09;7.55;;;3.43;;
60336;SDS011;46978;50.288;28.624;2023-05-07T03:59:12;8.17;;;3.58;;
60336;SDS011;46978;50.288;28.624;2023-05-07T04:00:14;7.01;;;3.11;;
60336;SDS011;46978;50.288;28.624;2023-05-07T04:01:16;6.37;;;2.93;;
60336;SDS011;46978;50.288;28.624;2023-05-07T04:02:18;7.89;;;3.30;;
60336;SDS011;46978;50.288;28.624;2023-05-07T04:03:19;8.82;;;4.18;;
60336;SDS011;46978;50.288;28.624;2023-05-07T04:04:21;7.06;;;2.91;;
60336;SDS011;46978;50.288;28.624;2023-05-07T04:05:23;5.64;;;2.87;;
60336;SDS011;46978;50.288;28.624;2023-05-07T04:06:25;5.73;;;2.92;;
60336;SDS011;46978;50.288;28.624;2023-05-07T04:07:26;10.41;;;3.91;;
60336;SDS011;46978;50.288;28.624;2023-05-07T04:08:28;10.08;;;3.92;;
60336;SDS011;46978;50.288;28.624;2023-05-07T04:09:30;6.37;;;3.01;;
60336;SDS011;46978;50.288;28.624;2023-05-07T04:10:32;6.99;;;3.56;;
60336;SDS011;46978;50.288;28.624;2023-05-07T04:11:34;7.29;;;2.91;;
60336;SDS011;46978;50.288;28.624;2023-05-07T04:12:36;7.06;;;3.23;;
60336;SDS011;46978;50.288;28.624;2023-05-07T04:13:38;5.39;;;2.83;;
60336;SDS011;46978;50.288;28.624;2023-05-07T04:14:39;8.49;;;3.04;;
60336;SDS011;46978;50.288;28.624;2023-05-07T04:15:41;7.23;;;3.35;;
60336;SDS011;46978;50.288;28.624;2023-05-07T04:16:43;5.71;;;3.29;;
60336;SDS011;46978;50.288;28.624;2023-05-07T04:17:44;7.51;;;3.14;;
60336;SDS011;46978;50.288;28.624;2023-05-07T04:18:46;6.83;;;2.88;;
60336;SDS011;46978;50.288;28.624;2023-05-07T04:19:48;6.09;;;2.77;;
60336;SDS011;46978;50.288;28.624;2023-05-07T04:20:49;6.07;;;2.98;;
60336;SDS011;46978;50.288;28.624;2023-05-07T04:21:51;7.46;;;2.79;;
60336;SDS011;46978;50.288;28.624;2023-05-07T04:22:53;7.06;;;3.24;;
60336;SDS011;46978;50.288;28.624;2023-05-07T04:23:54;7.60;;;3.54;;
60336;SDS011;46978;50.288;28.624;2023-05-07T04:24:57;8.65;;;3.65;;
60336;SDS011;46978;50.288;28.624;2023-05-07T04:25:58;6.79;;;3.32;;
60336;SDS011;46978;50.288;28.624;2023-05-07T04:27:00;7.64;;;3.82;;
60336;SDS011;46978;50.288;28.624;2023-05-07T04:28:02;6.60;;;3.61;;
60336;SDS011;46978;50.288;28.624;2023-05-07T04:29:04;6.98;;;3.33;;
60336;SDS011;46978;50.288;28.624;2023-05-07T04:30:06;6.66;;;3.27;;
60336;SDS011;46978;50.288;28.624;2023-05-07T04:31:08;7.20;;;3.45;;
60336;SDS011;46978;50.288;28.624;2023-05-07T04:32:10;5.31;;;2.59;;
60336;SDS011;46978;50.288;28.624;2023-05-07T04:33:12;6.31;;;2.60;;
60336;SDS011;46978;50.288;28.624;2023-05-07T04:34:15;4.91;;;2.89;;
60336;SDS011;46978;50.288;28.624;2023-05-07T04:35:17;8.41;;;3.52;;
60336;SDS011;46978;50.288;28.624;2023-05-07T04:36:19;5.72;;;2.63;;
60336;SDS011;46978;50.288;28.624;2023-05-07T04:37:20;9.67;;;3.27;;
60336;SDS011;46978;50.288;28.624;2023-05-07T04:38:22;7.59;;;3.46;;
60336;SDS011;46978;50.288;28.624;2023-05-07T04:39:24;5.85;;;3.22;;
60336;SDS011;46978;50.288;28.624;2023-05-07T04:40:26;6.88;;;3.39;;
60336;SDS011;46978;50.288;28.624;2023-05-07T04:41:28;6.28;;;3.09;;
60336;SDS011;46978;50.288;28.624;2023-05-07T04:42:30;7.02;;;3.28;;
60336;SDS011;46978;50.288;28.624;2023-05-07T04:43:31;6.21;;;3.08;;
60336;SDS011;46978;50.288;28.624;2023-05-07T04:44:33;7.45;;;3.54;;
60336;SDS011;46978;50.288;28.624;2023-05-07T04:45:36;8.29;;;3.49;;
60336;SDS011;46978;50.288;28.624;2023-05-07T04:46:37;6.33;;;2.93;;
60336;SDS011;46978;50.288;28.624;2023-05-07T04:47:39;10.64;;;3.56;;
60336;SDS011;46978;50.288;28.624;2023-05-07T04:48:41;4.95;;;3.02;;
60336;SDS011;46978;50.288;28.624;2023-05-07T04:49:42;6.56;;;2.93;;
60336;SDS011;46978;50.288;28.624;2023-05-07T04:50:46;6.49;;;3.04;;
60336;SDS011;46978;50.288;28.624;2023-05-07T04:51:51;5.07;;;2.70;;
60336;SDS011;46978;50.288;28.624;2023-05-07T04:52:53;6.44;;;3.16;;
60336;SDS011;46978;50.288;28.624;2023-05-07T04:53:54;5.81;;;2.81;;
60336;SDS011;46978;50.288;28.624;2023-05-07T04:54:56;5.59;;;2.99;;
60336;SDS011;46978;50.288;28.624;2023-05-07T04:55:59;6.01;;;3.09;;
60336;SDS011;46978;50.288;28.624;2023-05-07T04:57:03;5.98;;;2.70;;
60336;SDS011;46978;50.288;28.624;2023-05-07T04:58:05;5.33;;;2.92;;
60336;SDS011;46978;50.288;28.624;2023-05-07T04:59:07;5.04;;;2.75;;
60336;SDS011;46978;50.288;28.624;2023-05-07T05:00:09;4.05;;;2.43;;
60336;SDS011;46978;50.288;28.624;2023-05-07T05:01:12;4.90;;;2.54;;
60336;SDS011;46978;50.288;28.624;2023-05-07T05:02:14;5.36;;;2.80;;
60336;SDS011;46978;50.288;28.624;2023-05-07T05:03:15;5.29;;;2.67;;
60336;SDS011;46978;50.288;28.624;2023-05-07T05:04:17;5.54;;;2.94;;
60336;SDS011;46978;50.288;28.624;2023-05-07T05:05:19;6.25;;;2.69;;
60336;SDS011;46978;50.288;28.624;2023-05-07T05:06:21;4.04;;;2.40;;
60336;SDS011;46978;50.288;28.624;2023-05-07T05:07:22;4.24;;;2.50;;
60336;SDS011;46978;50.288;28.624;2023-05-07T05:08:24;4.81;;;2.03;;
60336;SDS011;46978;50.288;28.624;2023-05-07T05:09:26;4.34;;;2.30;;
60336;SDS011;46978;50.288;28.624;2023-05-07T05:10:28;4.45;;;2.45;;
60336;SDS011;46978;50.288;28.624;2023-05-07T05:11:30;4.51;;;2.30;;
60336;SDS011;46978;50.288;28.624;2023-05-07T05:12:32;5.00;;;2.51;;
60336;SDS011;46978;50.288;28.624;2023-05-07T05:13:33;5.69;;;2.41;;
60336;SDS011;46978;50.288;28.624;2023-05-07T05:14:35;8.47;;;2.68;;
60336;SDS011;46978;50.288;28.624;2023-05-07T05:15:37;4.70;;;2.26;;
60336;SDS011;46978;50.288;28.624;2023-05-07T05:16:38;6.71;;;2.62;;
60336;SDS011;46978;50.288;28.624;2023-05-07T05:17:40;5.76;;;2.81;;
60336;SDS011;46978;50.288;28.624;2023-05-07T05:18:42;5.09;;;2.25;;
60336;SDS011;46978;50.288;28.624;2023-05-07T05:19:43;4.71;;;2.33;;
60336;SDS011;46978;50.288;28.624;2023-05-07T05:20:45;5.65;;;2.16;;
60336;SDS011;46978;50.288;28.624;2023-05-07T05:21:47;4.19;;;2.24;;
60336;SDS011;46978;50.288;28.624;2023-05-07T05:22:48;4.04;;;2.49;;
60336;SDS011;46978;50.288;28.624;2023-05-07T05:23:50;5.72;;;2.67;;
60336;SDS011;46978;50.288;28.624;2023-05-07T05:24:52;5.05;;;2.69;;
60336;SDS011;46978;50.288;28.624;2023-05-07T05:25:57;5.16;;;2.66;;
60336;SDS011;46978;50.288;28.624;2023-05-07T05:26:59;7.21;;;3.60;;
60336;SDS011;46978;50.288;28.624;2023-05-07T05:28:01;8.13;;;3.16;;
60336;SDS011;46978;50.288;28.624;2023-05-07T05:29:02;4.49;;;2.61;;
60336;SDS011;46978;50.288;28.624;2023-05-07T05:30:04;5.53;;;2.35;;
60336;SDS011;46978;50.288;28.624;2023-05-07T05:31:07;3.69;;;2.16;;
60336;SDS011;46978;50.288;28.624;2023-05-07T05:32:09;6.11;;;2.31;;
60336;SDS011;46978;50.288;28.624;2023-05-07T05:33:10;3.76;;;2.17;;
60336;SDS011;46978;50.288;28.624;2023-05-07T05:34:12;5.71;;;2.23;;
60336;SDS011;46978;50.288;28.624;2023-05-07T05:35:14;4.54;;;1.92;;
60336;SDS011;46978;50.288;28.624;2023-05-07T05:36:16;5.64;;;2.72;;
60336;SDS011;46978;50.288;28.624;2023-05-07T05:37:18;5.32;;;1.84;;
60336;SDS011;46978;50.288;28.624;2023-05-07T05:38:19;4.59;;;2.09;;
60336;SDS011;46978;50.288;28.624;2023-05-07T05:39:21;3.89;;;2.17;;
60336;SDS011;46978;50.288;28.624;2023-05-07T05:40:23;4.79;;;2.37;;
60336;SDS011;46978;50.288;28.624;2023-05-07T05:41:25;4.66;;;2.08;;
60336;SDS011;46978;50.288;28.624;2023-05-07T05:42:26;5.69;;;2.41;;
60336;SDS011;46978;50.288;28.624;2023-05-07T05:43:28;3.99;;;2.04;;
60336;SDS011;46978;50.288;28.624;2023-05-07T05:44:30;4.67;;;2.03;;
60336;SDS011;46978;50.288;28.624;2023-05-07T05:45:31;5.96;;;2.41;;
60336;SDS011;46978;50.288;28.624;2023-05-07T05:46:33;4.82;;;2.03;;
60336;SDS011;46978;50.288;28.624;2023-05-07T05:47:36;4.26;;;2.07;;
60336;SDS011;46978;50.288;28.624;2023-05-07T05:48:38;5.09;;;1.87;;
60336;SDS011;46978;50.288;28.624;2023-05-07T05:49:40;6.10;;;2.57;;
60336;SDS011;46978;50.288;28.624;2023-05-07T05:50:42;3.89;;;1.96;;
60336;SDS011;46978;50.288;28.624;2023-05-07T05:51:47;3.93;;;1.95;;
60336;SDS011;46978;50.288;28.624;2023-05-07T05:52:48;4.54;;;2.34;;
60336;SDS011;46978;50.288;28.624;2023-05-07T05:53:50;4.93;;;2.00;;
60336;SDS011;46978;50.288;28.624;2023-05-07T05:54:51;5.91;;;2.58;;
60336;SDS011;46978;50.288;28.624;2023-05-07T05:55:53;4.25;;;2.36;;
60336;SDS011;46978;50.288;28.624;2023-05-07T05:56:55;6.85;;;2.01;;
60336;SDS011;46978;50.288;28.624;2023-05-07T05:57:56;6.34;;;2.16;;
60336;SDS011;46978;50.288;28.624;2023-05-07T05:58:58;3.93;;;2.04;;
60336;SDS011;46978;50.288;28.624;2023-05-07T06:00:01;4.19;;;2.01;;
60336;SDS011;46978;50.288;28.624;2023-05-07T06:01:03;5.20;;;2.09;;
60336;SDS011;46978;50.288;28.624;2023-05-07T06:02:05;5.21;;;2.09;;
60336;SDS011;46978;50.288;28.624;2023-05-07T06:03:07;4.65;;;2.03;;
60336;SDS011;46978;50.288;28.624;2023-05-07T06:04:09;5.06;;;1.93;;
60336;SDS011;46978;50.288;28.624;2023-05-07T06:05:11;5.32;;;2.67;;
60336;SDS011;46978;50.288;28.624;2023-05-07T06:06:13;6.48;;;2.44;;
60336;SDS011;46978;50.288;28.624;2023-05-07T06:07:14;3.55;;;1.92;;
60336;SDS011;46978;50.288;28.624;2023-05-07T06:08:16;4.17;;;2.25;;
60336;SDS011;46978;50.288;28.624;2023-05-07T06:09:17;4.71;;;2.54;;